createdAt,value
2022-12-08T00:02:29.037Z,82.49
2022-12-08T00:05:33.443Z,82.63
2022-12-08T00:08:37.408Z,82.54
2022-12-08T00:11:22.789Z,81.93
2022-12-08T00:14:08.247Z,82.06
2022-12-08T00:16:54.549Z,82.20
2022-12-08T00:19:40.700Z,82.41
2022-12-08T00:22:26.461Z,82.36
2022-12-08T00:25:12.148Z,82.27
2022-12-08T00:27:57.957Z,81.97
2022-12-08T00:30:44.204Z,82.03
2022-12-08T00:33:29.726Z,82.15
2022-12-08T00:36:16.016Z,81.97
2022-12-08T00:39:01.845Z,81.63
2022-12-08T00:42:05.875Z,81.86
2022-12-08T00:44:51.729Z,82.13
2022-12-08T00:47:37.432Z,81.97
2022-12-08T00:50:22.957Z,81.21
2022-12-08T00:53:08.616Z,81.58
2022-12-08T00:55:54.039Z,81.92
2022-12-08T00:58:39.514Z,81.68
2022-12-08T01:01:25.314Z,81.48
2022-12-08T01:04:15.535Z,81.67
2022-12-08T01:07:01.249Z,81.41
2022-12-08T01:09:46.693Z,81.36
2022-12-08T01:12:32.219Z,81.82
2022-12-08T01:15:17.735Z,81.97
2022-12-08T01:18:03.333Z,81.84
2022-12-08T01:20:48.725Z,81.71
2022-12-08T01:23:35.028Z,81.80
2022-12-08T01:26:20.680Z,81.81
2022-12-08T01:29:06.291Z,81.95
2022-12-08T01:31:52.001Z,81.68
2022-12-08T01:34:37.729Z,81.76
2022-12-08T01:37:22.919Z,81.83
2022-12-08T01:40:08.731Z,81.80
2022-12-08T01:42:54.165Z,81.56
2022-12-08T01:45:39.619Z,81.61
2022-12-08T01:48:27.498Z,81.22
2022-12-08T01:51:13.716Z,81.25
2022-12-08T01:53:59.582Z,81.44
2022-12-08T01:56:58.258Z,81.23
2022-12-08T01:59:50.761Z,81.11
2022-12-08T02:02:48.978Z,81.13
2022-12-08T02:05:39.815Z,80.92
2022-12-08T02:08:26.442Z,81.05
2022-12-08T02:11:12.862Z,80.98
2022-12-08T02:13:59.954Z,80.89
2022-12-08T02:17:13.685Z,81.08
2022-12-08T02:20:14.575Z,80.68
2022-12-08T02:23:32.571Z,80.61
2022-12-08T02:27:06.086Z,81.12
2022-12-08T02:30:18.706Z,81.01
2022-12-08T02:33:04.455Z,81.14
2022-12-08T02:36:05.057Z,80.59
2022-12-08T02:39:07.740Z,81.18
2022-12-08T02:42:18.991Z,80.88
2022-12-08T02:45:14.881Z,81.12
2022-12-08T02:48:00.557Z,81.07
2022-12-08T02:50:46.254Z,81.07
2022-12-08T02:53:33.423Z,80.77
2022-12-08T02:56:31.613Z,80.90
2022-12-08T02:59:33.144Z,81.18
2022-12-08T03:02:41.903Z,81.05
2022-12-08T03:06:00.197Z,81.25
2022-12-08T03:08:52.281Z,81.55
2022-12-08T03:11:49.783Z,80.92
2022-12-08T03:14:37.036Z,81.37
2022-12-08T03:17:26.268Z,81.29
2022-12-08T03:20:16.396Z,81.26
2022-12-08T03:23:08.480Z,80.91
2022-12-08T03:26:02.015Z,81.18
2022-12-08T03:28:47.615Z,81.09
2022-12-08T03:31:37.079Z,81.29
2022-12-08T03:34:26.065Z,80.93
2022-12-08T03:37:11.806Z,81.04
2022-12-08T03:39:57.712Z,81.19
2022-12-08T03:42:44.211Z,80.90
2022-12-08T03:45:30.004Z,80.91
2022-12-08T03:48:15.283Z,81.13
2022-12-08T03:51:00.610Z,80.87
2022-12-08T03:53:46.396Z,81.28
2022-12-08T03:56:34.488Z,81.07
2022-12-08T03:59:19.781Z,80.85
2022-12-08T04:02:05.217Z,80.80
2022-12-08T04:04:50.911Z,80.65
2022-12-08T04:07:36.689Z,81.11
2022-12-08T04:10:22.374Z,81.08
2022-12-08T04:13:07.840Z,81.09
2022-12-08T04:15:53.242Z,80.99
2022-12-08T04:18:38.758Z,81.21
2022-12-08T04:21:24.278Z,81.10
2022-12-08T04:24:09.842Z,80.71
2022-12-08T04:26:55.537Z,80.71
2022-12-08T04:29:41.087Z,81.10
2022-12-08T04:32:26.894Z,81.17
2022-12-08T04:35:12.411Z,80.93
2022-12-08T04:37:58.088Z,81.13
2022-12-08T04:40:43.454Z,80.94
2022-12-08T04:43:28.888Z,81.11
2022-12-08T04:46:14.296Z,81.03
2022-12-08T04:48:59.837Z,80.92
2022-12-08T04:51:45.392Z,80.97
2022-12-08T04:54:31.035Z,80.88
2022-12-08T04:57:16.662Z,81.12
2022-12-08T05:00:02.933Z,81.21
2022-12-08T05:02:48.977Z,81.12
2022-12-08T05:05:34.346Z,81.21
2022-12-08T05:08:20.097Z,81.06
2022-12-08T05:11:07.919Z,81.23
2022-12-08T05:13:53.410Z,81.03
2022-12-08T05:16:39.722Z,80.95
2022-12-08T05:19:25.280Z,81.30
2022-12-08T05:22:11.034Z,81.15
2022-12-08T05:24:56.757Z,80.83
2022-12-08T05:27:43.222Z,80.85
2022-12-08T05:30:29.573Z,81.03
2022-12-08T05:33:15.824Z,81.03
2022-12-08T05:36:01.112Z,80.82
2022-12-08T05:38:47.344Z,80.97
2022-12-08T05:41:33.037Z,81.03
2022-12-08T05:44:18.589Z,80.63
2022-12-08T05:47:04.714Z,80.71
2022-12-08T05:49:50.222Z,80.88
2022-12-08T05:52:35.644Z,80.65
2022-12-08T05:55:21.071Z,80.66
2022-12-08T05:58:08.128Z,81.13
2022-12-08T06:00:53.595Z,81.09
2022-12-08T06:03:38.952Z,80.60
2022-12-08T06:06:24.871Z,81.26
2022-12-08T06:09:10.296Z,80.68
2022-12-08T06:11:55.979Z,80.89
2022-12-08T06:14:41.877Z,80.86
2022-12-08T06:17:27.203Z,81.06
2022-12-08T06:20:12.797Z,80.88
2022-12-08T06:22:58.577Z,80.86
2022-12-08T06:25:44.030Z,80.89
2022-12-08T06:28:30.960Z,80.38
2022-12-08T06:31:22.274Z,80.77
2022-12-08T06:34:07.789Z,80.50
2022-12-08T06:36:52.908Z,80.61
2022-12-08T06:39:38.407Z,80.36
2022-12-08T06:42:42.591Z,80.71
2022-12-08T06:45:28.338Z,80.58
2022-12-08T06:48:14.009Z,80.67
2022-12-08T06:51:17.153Z,80.56
2022-12-08T06:54:02.949Z,80.09
2022-12-08T06:56:48.444Z,80.64
2022-12-08T06:59:34.124Z,80.46
2022-12-08T07:02:19.611Z,80.21
2022-12-08T07:05:05.136Z,80.41
2022-12-08T07:07:50.776Z,80.64
2022-12-08T07:10:36.889Z,80.66
2022-12-08T07:13:22.746Z,80.33
2022-12-08T07:16:10.517Z,80.06
2022-12-08T07:18:56.147Z,79.93
2022-12-08T07:21:41.631Z,80.12
2022-12-08T07:24:27.107Z,79.86
2022-12-08T07:27:12.436Z,79.99
2022-12-08T07:29:58.059Z,80.23
2022-12-08T07:32:43.536Z,80.01
2022-12-08T07:35:31.061Z,80.04
2022-12-08T07:38:16.354Z,80.28
2022-12-08T07:41:02.220Z,80.28
2022-12-08T07:43:48.109Z,80.05
2022-12-08T07:46:33.464Z,79.82
2022-12-08T07:49:19.116Z,79.86
2022-12-08T07:52:04.786Z,79.84
2022-12-08T07:54:50.198Z,80.04
2022-12-08T07:57:35.555Z,79.80
2022-12-08T08:00:21.116Z,80.41
2022-12-08T08:03:08.999Z,80.19
2022-12-08T08:05:55.085Z,80.23
2022-12-08T08:08:40.352Z,79.93
2022-12-08T08:11:25.787Z,80.24
2022-12-08T08:14:12.440Z,80.19
2022-12-08T08:16:58.205Z,80.05
2022-12-08T08:19:46.206Z,79.50
2022-12-08T08:22:32.921Z,79.95
2022-12-08T08:25:20.132Z,79.37
2022-12-08T08:28:06.724Z,79.50
2022-12-08T08:30:52.418Z,78.94
2022-12-08T08:33:39.006Z,79.49
2022-12-08T08:36:25.527Z,78.80
2022-12-08T08:39:10.944Z,78.84
2022-12-08T08:41:57.797Z,78.87
2022-12-08T08:44:45.286Z,78.68
2022-12-08T08:47:31.143Z,78.79
2022-12-08T08:50:16.620Z,79.32
2022-12-08T08:53:03.025Z,78.88
2022-12-08T08:55:50.059Z,78.72
2022-12-08T08:58:35.356Z,79.00
2022-12-08T09:01:23.321Z,78.41
2022-12-08T09:04:10.338Z,78.89
2022-12-08T09:06:56.744Z,78.80
2022-12-08T09:09:42.467Z,78.55
2022-12-08T09:12:28.538Z,78.36
2022-12-08T09:15:14.005Z,78.16
2022-12-08T09:17:59.514Z,78.22
2022-12-08T09:20:44.977Z,78.28
2022-12-08T09:23:35.449Z,77.67
2022-12-08T09:26:22.621Z,77.39
2022-12-08T09:29:08.826Z,77.38
2022-12-08T09:31:55.364Z,77.36
2022-12-08T09:34:41.414Z,77.28
2022-12-08T09:37:26.772Z,77.31
2022-12-08T09:40:17.381Z,77.45
2022-12-08T09:43:12.460Z,77.16
2022-12-08T09:45:58.771Z,77.55
2022-12-08T09:48:55.655Z,77.17
2022-12-08T09:51:44.146Z,77.22
2022-12-08T09:54:40.030Z,77.14
2022-12-08T09:57:26.902Z,77.39
2022-12-08T10:00:14.574Z,77.11
2022-12-08T10:03:00.689Z,77.52
2022-12-08T10:06:00.348Z,77.08
2022-12-08T10:09:12.450Z,76.90
2022-12-08T10:12:16.351Z,77.45
2022-12-08T10:15:41.164Z,76.87
2022-12-08T10:18:32.419Z,76.73
2022-12-08T10:21:22.249Z,76.72
2022-12-08T10:24:21.068Z,76.44
2022-12-08T10:27:12.087Z,76.53
2022-12-08T10:29:57.726Z,76.99
2022-12-08T10:32:51.136Z,76.36
2022-12-08T10:35:46.471Z,76.52
2022-12-08T10:38:37.380Z,76.23
2022-12-08T10:41:25.026Z,75.95
2022-12-08T10:44:10.169Z,76.44
2022-12-08T10:46:56.141Z,76.54
2022-12-08T10:49:41.465Z,76.41
2022-12-08T10:52:26.885Z,76.06
2022-12-08T10:55:20.295Z,76.39
2022-12-08T10:58:06.082Z,76.23
2022-12-08T11:01:01.825Z,75.93
2022-12-08T11:03:52.502Z,76.08
2022-12-08T11:06:40.185Z,75.80
2022-12-08T11:09:58.362Z,75.82
2022-12-08T11:12:44.359Z,75.90
2022-12-08T11:15:36.620Z,75.71
2022-12-08T11:18:39.477Z,75.67
2022-12-08T11:21:36.537Z,75.50
2022-12-08T11:24:30.234Z,75.22
2022-12-08T11:27:18.790Z,74.66
2022-12-08T11:30:18.937Z,74.63
2022-12-08T11:33:17.736Z,74.97
2022-12-08T11:36:09.131Z,74.42
2022-12-08T11:39:00.961Z,74.73
2022-12-08T11:41:47.661Z,75.29
2022-12-08T11:44:46.398Z,75.20
2022-12-08T11:47:37.272Z,74.80
2022-12-08T11:50:39.125Z,74.57
2022-12-08T11:53:43.094Z,74.87
2022-12-08T11:56:36.599Z,74.91
2022-12-08T11:59:44.338Z,75.02
2022-12-08T12:02:34.524Z,75.28
2022-12-08T12:06:38.140Z,75.45
2022-12-08T12:09:19.683Z,74.79
2022-12-08T12:12:39.399Z,74.48
2022-12-08T12:16:03.126Z,74.78
2022-12-08T12:18:59.071Z,74.87
2022-12-08T12:21:49.443Z,74.18
2022-12-08T12:24:38.185Z,74.35
2022-12-08T12:27:31.058Z,74.30
2022-12-08T12:30:24.104Z,73.79
2022-12-08T12:33:15.737Z,73.77
2022-12-08T12:36:09.507Z,73.81
2022-12-08T12:39:01.711Z,73.64
2022-12-08T12:41:55.136Z,73.44
2022-12-08T12:44:40.860Z,73.48
2022-12-08T12:47:57.982Z,73.44
2022-12-08T12:50:45.937Z,73.63
2022-12-08T12:53:34.573Z,73.55
2022-12-08T12:56:48.518Z,73.91
2022-12-08T12:59:55.629Z,73.64
2022-12-08T13:02:53.182Z,73.93
2022-12-08T13:05:52.486Z,73.55
2022-12-08T13:08:41.819Z,73.54
2022-12-08T13:11:27.673Z,73.86
2022-12-08T13:14:27.883Z,73.95
2022-12-08T13:17:18.952Z,73.73
2022-12-08T13:20:06.738Z,74.05
2022-12-08T13:23:13.316Z,73.77
2022-12-08T13:26:22.110Z,74.10
2022-12-08T13:29:15.018Z,73.77
2022-12-08T13:32:01.575Z,74.10
2022-12-08T13:34:56.235Z,74.19
2022-12-08T13:37:54.829Z,74.11
2022-12-08T13:40:42.599Z,74.13
2022-12-08T13:43:55.808Z,74.16
2022-12-08T13:47:17.146Z,74.08
2022-12-08T13:57:02.492Z,74.68
2022-12-08T13:59:35.956Z,74.59
2022-12-08T14:02:39.553Z,75.01
2022-12-08T14:06:10.490Z,74.43
2022-12-08T14:09:00.379Z,74.09
2022-12-08T14:11:58.204Z,74.65
2022-12-08T14:15:02.581Z,73.94
2022-12-08T14:17:55.583Z,74.18
2022-12-08T14:21:05.029Z,74.33
2022-12-08T14:23:46.911Z,74.42
2022-12-08T14:26:35.385Z,74.43
2022-12-08T14:29:48.450Z,74.00
2022-12-08T14:32:43.447Z,74.35
2022-12-08T14:35:34.373Z,73.86
2022-12-08T14:38:22.021Z,73.43
2022-12-08T14:41:11.652Z,73.68
2022-12-08T14:44:03.586Z,73.50
2022-12-08T14:47:28.466Z,74.10
2022-12-08T14:50:40.060Z,73.99
2022-12-08T14:53:26.134Z,74.05
2022-12-08T14:56:20.361Z,74.36
2022-12-08T14:59:12.057Z,74.40
2022-12-08T15:02:44.449Z,74.04
2022-12-08T15:05:31.593Z,74.25
2022-12-08T15:08:17.298Z,74.17
2022-12-08T15:11:27.475Z,74.81
2022-12-08T15:14:33.077Z,74.73
2022-12-08T15:17:30.446Z,74.79
2022-12-08T15:20:27.587Z,74.76
2022-12-08T15:23:31.310Z,75.07
2022-12-08T15:26:22.763Z,74.79
2022-12-08T15:29:21.637Z,74.71
2022-12-08T15:32:11.284Z,75.29
2022-12-08T15:34:56.927Z,75.24
2022-12-08T15:37:42.618Z,75.43
2022-12-08T15:40:27.803Z,75.20
2022-12-08T15:43:13.181Z,75.69
2022-12-08T15:46:00.121Z,75.85
2022-12-08T15:48:45.890Z,75.82
2022-12-08T15:51:36.357Z,76.00
2022-12-08T15:54:22.023Z,76.03
2022-12-08T15:57:25.230Z,76.54
2022-12-08T16:00:51.007Z,76.27
2022-12-08T16:04:18.615Z,76.74
2022-12-08T16:07:19.674Z,76.77
2022-12-08T16:09:44.212Z,76.63
2022-12-08T16:13:48.029Z,76.87
2022-12-08T16:16:00.494Z,77.05
2022-12-08T16:18:48.202Z,77.07
2022-12-08T16:22:04.779Z,77.29
2022-12-08T16:24:39.312Z,77.51
2022-12-08T16:30:33.563Z,77.01
2022-12-08T16:33:19.167Z,77.40
2022-12-08T16:36:04.709Z,77.54
2022-12-08T16:38:50.120Z,77.49
2022-12-08T16:41:54.184Z,77.55
2022-12-08T16:44:42.165Z,77.69
2022-12-08T16:47:27.806Z,78.17
2022-12-08T16:50:15.566Z,77.98
2022-12-08T16:53:12.524Z,78.12
2022-12-08T16:55:58.034Z,78.17
2022-12-08T16:58:44.507Z,78.37
2022-12-08T17:01:30.488Z,78.49
2022-12-08T17:04:31.350Z,78.57
2022-12-08T17:07:17.609Z,78.49
2022-12-08T17:10:07.616Z,78.66
2022-12-08T17:12:54.198Z,78.52
2022-12-08T17:15:40.261Z,78.65
2022-12-08T17:18:25.930Z,78.86
2022-12-08T17:21:13.333Z,79.00
2022-12-08T17:23:58.783Z,78.96
2022-12-08T17:26:44.173Z,78.79
2022-12-08T17:29:33.922Z,79.00
2022-12-08T17:32:20.143Z,79.34
2022-12-08T17:35:07.303Z,79.39
2022-12-08T17:37:53.106Z,79.28
2022-12-08T17:40:39.179Z,79.28
2022-12-08T17:43:24.657Z,79.24
2022-12-08T17:46:10.134Z,79.57
2022-12-08T17:48:55.769Z,79.66
2022-12-08T17:51:41.249Z,79.58
2022-12-08T17:54:28.045Z,79.79
2022-12-08T17:57:13.941Z,79.46
2022-12-08T17:59:59.214Z,79.67
2022-12-08T18:02:44.626Z,79.60
2022-12-08T18:05:31.339Z,79.76
2022-12-08T18:08:17.130Z,79.86
2022-12-08T18:11:04.504Z,79.80
2022-12-08T18:13:51.497Z,79.70
2022-12-08T18:16:39.945Z,79.62
2022-12-08T18:19:26.347Z,79.83
2022-12-08T18:22:12.371Z,79.55
2022-12-08T18:24:57.690Z,79.67
2022-12-08T18:27:44.271Z,79.76
2022-12-08T18:30:29.860Z,79.58
2022-12-08T18:33:15.535Z,79.84
2022-12-08T18:36:01.086Z,80.12
2022-12-08T18:38:46.478Z,79.85
2022-12-08T18:41:32.375Z,79.86
2022-12-08T18:44:18.071Z,80.05
2022-12-08T18:47:03.643Z,80.12
2022-12-08T18:49:49.053Z,80.11
2022-12-08T18:52:35.048Z,80.16
2022-12-08T18:55:20.581Z,80.04
2022-12-08T18:58:05.828Z,79.92
2022-12-08T19:00:51.252Z,80.23
2022-12-08T19:03:36.440Z,80.26
2022-12-08T19:06:22.939Z,80.36
2022-12-08T19:09:12.633Z,80.37
2022-12-08T19:11:58.465Z,80.49
2022-12-08T19:14:44.491Z,80.51
2022-12-08T19:17:30.060Z,80.50
2022-12-08T19:20:15.405Z,80.42
2022-12-08T19:23:00.922Z,80.48
2022-12-08T19:25:46.409Z,80.65
2022-12-08T19:28:33.000Z,80.51
2022-12-08T19:31:18.782Z,80.65
2022-12-08T19:34:05.916Z,80.63
2022-12-08T19:36:51.517Z,80.78
2022-12-08T19:39:55.453Z,80.50
2022-12-08T19:42:59.878Z,80.87
2022-12-08T19:45:45.237Z,80.85
2022-12-08T19:48:31.111Z,80.76
2022-12-08T19:51:16.499Z,80.80
2022-12-08T19:54:02.313Z,80.87
2022-12-08T19:56:48.413Z,80.96
2022-12-08T19:59:34.540Z,80.70
2022-12-08T20:02:20.356Z,81.02
2022-12-08T20:05:06.927Z,81.10
2022-12-08T20:07:55.822Z,81.01
2022-12-08T20:10:43.656Z,81.06
2022-12-08T20:13:41.476Z,81.20
2022-12-08T20:16:26.990Z,81.16
2022-12-08T20:19:12.588Z,81.17
2022-12-08T20:21:57.974Z,81.12
2022-12-08T20:24:43.597Z,81.22
2022-12-08T20:27:29.224Z,81.41
2022-12-08T20:30:17.286Z,81.85
2022-12-08T20:33:02.999Z,81.39
2022-12-08T20:36:01.756Z,81.54
2022-12-08T20:38:48.939Z,81.55
2022-12-08T20:41:38.985Z,81.88
2022-12-08T20:44:24.740Z,81.78
2022-12-08T20:47:11.712Z,81.77
2022-12-08T20:49:57.288Z,82.05
2022-12-08T20:52:42.466Z,81.86
2022-12-08T20:55:27.896Z,81.81
2022-12-08T20:58:13.210Z,82.10
2022-12-08T21:00:58.527Z,81.96
2022-12-08T21:03:45.344Z,81.82
2022-12-08T21:06:31.598Z,82.13
2022-12-08T21:09:17.252Z,81.78
2022-12-08T21:12:02.856Z,82.10
2022-12-08T21:14:48.354Z,82.10
2022-12-08T21:17:33.979Z,82.02
2022-12-08T21:20:19.858Z,81.98
2022-12-08T21:23:05.354Z,82.16
2022-12-08T21:25:51.190Z,81.93
2022-12-08T21:28:36.758Z,82.14
2022-12-08T21:31:22.866Z,82.03
2022-12-08T21:34:10.200Z,82.11
2022-12-08T21:36:55.681Z,82.05
2022-12-08T21:39:41.242Z,82.18
2022-12-08T21:42:45.015Z,82.53
2022-12-08T21:45:31.223Z,82.43
2022-12-08T21:48:16.906Z,82.32
2022-12-08T21:51:05.499Z,82.22
2022-12-08T21:53:51.697Z,82.35
2022-12-08T21:56:37.403Z,82.34
2022-12-08T21:59:23.002Z,82.09
2022-12-08T22:02:14.697Z,82.39
2022-12-08T22:05:03.985Z,82.56
2022-12-08T22:07:49.937Z,82.38
2022-12-08T22:10:35.980Z,82.41
2022-12-08T22:13:21.702Z,82.40
2022-12-08T22:16:09.999Z,82.58
2022-12-08T22:18:55.438Z,82.57
2022-12-08T22:21:40.872Z,82.40
2022-12-08T22:24:26.708Z,82.45
2022-12-08T22:27:12.783Z,82.83
2022-12-08T22:29:58.362Z,82.49
2022-12-08T22:32:43.976Z,82.42
2022-12-08T22:35:29.302Z,82.51
2022-12-08T22:38:14.722Z,82.30
2022-12-08T22:41:00.446Z,82.57
2022-12-08T22:43:46.966Z,82.81
2022-12-08T22:46:32.385Z,82.83
2022-12-08T22:49:17.776Z,82.75
2022-12-08T22:52:03.532Z,82.56
2022-12-08T22:54:49.263Z,82.92
2022-12-08T22:57:34.646Z,82.63
2022-12-08T23:00:20.820Z,82.69
2022-12-08T23:03:06.565Z,82.48
2022-12-08T23:05:52.610Z,82.52
2022-12-08T23:08:38.011Z,82.81
2022-12-08T23:11:26.675Z,82.48
2022-12-08T23:14:12.487Z,82.47
2022-12-08T23:16:58.057Z,82.58
2022-12-08T23:19:43.702Z,82.79
2022-12-08T23:22:29.954Z,82.77
2022-12-08T23:25:15.269Z,82.78
2022-12-08T23:28:00.791Z,82.72
2022-12-08T23:30:46.265Z,82.80
2022-12-08T23:33:31.833Z,82.57
2022-12-08T23:36:18.999Z,82.87
2022-12-08T23:39:04.780Z,82.58
2022-12-08T23:41:51.180Z,83.01
2022-12-08T23:44:36.868Z,82.70
2022-12-08T23:47:22.539Z,82.92
2022-12-08T23:50:09.295Z,82.72
2022-12-08T23:52:55.099Z,82.66
2022-12-08T23:55:40.575Z,82.76
2022-12-08T23:58:26.176Z,82.72
